createdAt,value
2019-05-12T00:02:07.664Z,11.73
2019-05-12T00:07:12.409Z,16.77
2019-05-12T00:12:18.403Z,15.17
2019-05-12T00:17:23.103Z,9.60
2019-05-12T00:22:29.151Z,18.33
2019-05-12T00:27:33.562Z,9.47
2019-05-12T00:32:38.558Z,10.43
2019-05-12T00:37:43.224Z,15.87
2019-05-12T00:42:48.511Z,9.20
2019-05-12T00:47:53.041Z,14.03
2019-05-12T00:52:58.184Z,14.63
2019-05-12T00:58:02.818Z,14.97
2019-05-12T01:03:08.690Z,10.83
2019-05-12T01:08:13.545Z,11.53
2019-05-12T01:13:18.746Z,15.63
2019-05-12T01:18:23.292Z,12.57
2019-05-12T01:23:28.237Z,12.07
2019-05-12T01:28:32.993Z,14.77
2019-05-12T01:33:38.081Z,11.30
2019-05-12T01:38:42.673Z,15.10
2019-05-12T01:43:48.769Z,8.23
2019-05-12T01:48:53.225Z,8.13
2019-05-12T01:54:10.547Z,14.47
2019-05-12T01:59:05.215Z,13.93
2019-05-12T02:04:09.597Z,16.13
2019-05-12T02:09:15.659Z,14.40
2019-05-12T02:14:20.064Z,11.07
2019-05-12T02:19:24.485Z,10.63
2019-05-12T02:24:30.560Z,10.23
2019-05-12T02:29:35.302Z,11.90
2019-05-12T02:34:39.733Z,17.83
2019-05-12T02:39:44.909Z,11.83
2019-05-12T02:44:49.674Z,25.73
2019-05-12T02:49:54.529Z,8.07
2019-05-12T02:55:00.856Z,11.67
2019-05-12T03:00:07.868Z,9.77
2019-05-12T03:05:14.835Z,9.60
2019-05-12T03:10:18.994Z,11.80
2019-05-12T03:15:25.039Z,14.57
2019-05-12T03:20:29.581Z,12.90
2019-05-12T03:25:35.787Z,12.03
2019-05-12T03:30:41.243Z,13.97
2019-05-12T03:35:52.240Z,14.57
2019-05-12T03:40:54.938Z,14.63
2019-05-12T03:45:57.994Z,17.17
2019-05-12T03:51:05.447Z,12.00
2019-05-12T03:56:08.755Z,16.67
2019-05-12T04:01:14.975Z,17.47
2019-05-12T04:06:19.368Z,19.10
2019-05-12T04:11:25.004Z,18.83
2019-05-12T04:16:29.545Z,15.93
2019-05-12T04:21:35.062Z,19.37
2019-05-12T04:26:40.033Z,15.57
2019-05-12T04:31:44.450Z,13.70
2019-05-12T04:36:48.848Z,14.30
2019-05-12T04:41:55.135Z,16.40
2019-05-12T04:46:59.378Z,21.10
2019-05-12T04:52:05.238Z,15.03
2019-05-12T04:57:09.959Z,14.00
2019-05-12T05:02:15.328Z,19.87
2019-05-12T05:07:19.974Z,19.43
2019-05-12T05:12:24.383Z,13.13
2019-05-12T05:17:28.791Z,19.00
2019-05-12T05:22:33.460Z,17.47
2019-05-12T05:27:37.937Z,19.77
2019-05-12T05:32:44.458Z,16.93
2019-05-12T05:37:48.547Z,23.27
2019-05-12T05:42:54.280Z,23.07
2019-05-12T05:47:59.603Z,21.23
2019-05-12T05:53:09.174Z,20.37
2019-05-12T05:58:11.145Z,18.07
2019-05-12T06:03:23.419Z,15.57
2019-05-12T06:08:23.783Z,28.63
2019-05-12T06:13:31.796Z,16.07
2019-05-12T06:18:34.172Z,21.80
2019-05-12T06:23:39.252Z,17.23
2019-05-12T06:28:44.148Z,12.90
2019-05-12T06:33:48.606Z,19.20
2019-05-12T06:38:54.129Z,16.67
2019-05-12T06:43:58.762Z,13.60
2019-05-12T06:49:10.176Z,17.20
2019-05-12T06:54:12.002Z,14.50
2019-05-12T06:59:15.629Z,21.83
2019-05-12T07:04:21.936Z,10.47
2019-05-12T07:09:28.776Z,12.87
2019-05-12T07:14:34.546Z,16.03
2019-05-12T07:19:38.882Z,12.17
2019-05-12T07:24:49.950Z,13.20
2019-05-12T07:29:49.447Z,12.03
2019-05-12T07:34:54.855Z,9.67
2019-05-12T07:39:59.799Z,13.57
2019-05-12T07:45:11.518Z,9.30
2019-05-12T07:50:18.333Z,12.00
2019-05-12T07:55:19.054Z,9.50
2019-05-12T08:00:25.700Z,13.37
2019-05-12T08:05:29.716Z,8.80
2019-05-12T08:10:34.556Z,12.10
2019-05-12T08:15:39.830Z,8.90
2019-05-12T08:20:44.413Z,10.13
2019-05-12T08:25:48.834Z,7.63
2019-05-12T08:30:54.856Z,9.37
2019-05-12T08:36:03.173Z,6.60
2019-05-12T08:41:05.674Z,8.87
2019-05-12T08:46:12.915Z,5.60
2019-05-12T08:51:19.473Z,7.87
2019-05-12T08:56:24.005Z,7.30
2019-05-12T09:01:30.897Z,5.90
2019-05-12T09:06:35.968Z,11.13
2019-05-12T09:11:40.530Z,6.83
2019-05-12T09:16:44.941Z,6.27
2019-05-12T09:21:49.353Z,8.33
2019-05-12T09:26:53.988Z,7.73
2019-05-12T09:31:59.374Z,6.70
2019-05-12T09:37:04.725Z,3.40
2019-05-12T09:42:09.139Z,4.33
2019-05-12T09:47:23.105Z,9.33
2019-05-12T09:52:27.002Z,9.83
2019-05-12T09:57:26.041Z,7.40
2019-05-12T10:02:30.427Z,4.73
2019-05-12T10:07:34.859Z,8.23
2019-05-12T10:12:48.588Z,7.87
2019-05-12T10:17:45.562Z,3.27
2019-05-12T10:22:49.995Z,10.40
2019-05-12T10:27:54.532Z,6.33
2019-05-12T10:32:59.202Z,5.03
2019-05-12T10:38:08.595Z,5.30
2019-05-12T10:43:09.904Z,7.70
2019-05-12T10:48:14.454Z,9.73
2019-05-12T10:53:18.853Z,5.70
2019-05-12T10:58:24.841Z,12.93
2019-05-12T11:03:29.646Z,3.83
2019-05-12T11:08:34.065Z,8.23
2019-05-12T11:13:40.258Z,4.97
2019-05-12T11:18:44.782Z,6.67
2019-05-12T11:23:49.203Z,6.27
2019-05-12T11:28:53.680Z,5.73
2019-05-12T11:33:58.212Z,4.37
2019-05-12T11:39:03.686Z,5.53
2019-05-12T11:44:08.391Z,5.37
2019-05-12T11:49:13.800Z,4.90
2019-05-12T11:54:18.492Z,6.27
2019-05-12T11:59:23.741Z,7.37
2019-05-12T12:04:30.033Z,11.77
2019-05-12T12:09:34.451Z,5.53
2019-05-12T12:14:40.256Z,5.13
2019-05-12T12:19:46.937Z,4.57
2019-05-12T12:24:54.304Z,5.10
2019-05-12T12:30:12.101Z,6.50
2019-05-12T12:35:10.985Z,4.90
2019-05-12T12:40:14.400Z,5.33
2019-05-12T12:45:23.576Z,6.90
2019-05-12T12:50:30.564Z,7.53
2019-05-12T12:55:38.150Z,7.60
2019-05-12T13:00:47.290Z,9.30
2019-05-12T13:05:46.240Z,7.67
2019-05-12T13:10:51.932Z,6.90
2019-05-12T13:15:56.881Z,11.67
2019-05-12T13:21:03.407Z,9.23
2019-05-12T13:26:07.710Z,7.27
2019-05-12T13:31:15.736Z,5.03
2019-05-12T13:36:18.464Z,8.07
2019-05-12T13:41:22.906Z,9.47
2019-05-12T13:46:27.478Z,6.40
2019-05-12T13:51:48.291Z,7.77
2019-05-12T13:56:53.499Z,8.93
2019-05-12T14:01:58.087Z,6.57
2019-05-12T14:07:03.883Z,8.93
2019-05-12T14:12:08.537Z,7.73
2019-05-12T14:17:14.816Z,8.93
2019-05-12T14:22:21.467Z,8.13
2019-05-12T14:27:28.741Z,8.40
2019-05-12T14:32:33.626Z,8.03
2019-05-12T14:37:40.204Z,9.33
2019-05-12T14:42:44.435Z,9.20
2019-05-12T14:47:49.017Z,13.47
2019-05-12T14:52:57.792Z,9.57
2019-05-12T14:58:00.341Z,10.63
2019-05-12T15:03:12.389Z,10.70
2019-05-12T15:08:13.554Z,8.73
2019-05-12T15:13:17.525Z,12.27
2019-05-12T15:18:21.913Z,9.03
2019-05-12T15:23:32.314Z,9.43
2019-05-12T15:28:33.806Z,9.17
2019-05-12T15:33:38.518Z,9.07
2019-05-12T15:38:43.718Z,7.03
2019-05-12T15:43:49.177Z,5.07
2019-05-12T15:48:53.893Z,8.10
2019-05-12T15:54:06.365Z,10.53
2019-05-12T15:59:05.845Z,9.60
2019-05-12T16:04:12.052Z,7.50
2019-05-12T16:09:17.169Z,7.67
2019-05-12T16:14:23.374Z,8.50
2019-05-12T16:19:27.882Z,6.50
2019-05-12T16:24:34.067Z,9.40
2019-05-12T16:29:43.801Z,10.17
2019-05-12T16:34:48.778Z,6.60
2019-05-12T16:39:51.137Z,10.43
2019-05-12T16:45:05.327Z,6.33
2019-05-12T16:50:06.237Z,11.13
2019-05-12T16:55:08.547Z,6.53
2019-05-12T17:00:14.114Z,14.20
2019-05-12T17:05:20.532Z,14.03
2019-05-12T17:10:27.093Z,7.70
2019-05-12T17:15:33.803Z,6.53
2019-05-12T17:20:41.020Z,7.23
2019-05-12T17:25:44.619Z,6.97
2019-05-12T17:30:49.103Z,3.57
2019-05-12T17:35:53.697Z,9.80
2019-05-12T17:41:00.762Z,5.43
2019-05-12T17:46:04.704Z,4.53
2019-05-12T17:51:09.256Z,8.23
2019-05-12T17:56:14.039Z,8.23
2019-05-12T18:01:23.084Z,11.13
2019-05-12T18:06:26.836Z,10.03
2019-05-12T18:11:31.065Z,10.00
2019-05-12T18:16:35.900Z,12.47
2019-05-12T18:21:40.394Z,9.43
2019-05-12T18:26:47.150Z,15.97
2019-05-12T18:31:53.437Z,5.17
2019-05-12T18:36:59.706Z,12.93
2019-05-12T18:42:06.128Z,14.70
2019-05-12T18:47:14.369Z,9.57
2019-05-12T18:52:16.874Z,9.57
2019-05-12T18:57:23.699Z,12.67
2019-05-12T19:02:28.592Z,11.57
2019-05-12T19:07:39.844Z,13.50
2019-05-12T19:12:40.432Z,15.07
2019-05-12T19:17:46.026Z,7.53
2019-05-12T19:22:57.323Z,11.20
2019-05-12T19:28:05.986Z,9.80
2019-05-12T19:33:06.521Z,13.53
2019-05-12T19:38:09.215Z,10.00
2019-05-12T19:43:14.291Z,8.00
2019-05-12T19:48:24.811Z,15.53
2019-05-12T19:53:24.853Z,15.73
2019-05-12T19:58:29.553Z,14.10
2019-05-12T20:03:34.696Z,8.07
2019-05-12T20:08:39.250Z,11.23
2019-05-12T20:13:44.488Z,6.57
2019-05-12T20:18:49.353Z,10.57
2019-05-12T20:23:54.492Z,12.87
2019-05-12T20:28:59.064Z,11.60
2019-05-12T20:34:06.206Z,8.47
2019-05-12T20:39:15.833Z,10.63
2019-05-12T20:44:19.614Z,13.60
2019-05-12T20:49:24.148Z,13.93
2019-05-12T20:54:28.510Z,12.67
2019-05-12T20:59:33.841Z,11.87
2019-05-12T21:04:38.622Z,7.80
2019-05-12T21:09:44.133Z,11.20
2019-05-12T21:14:51.643Z,13.60
2019-05-12T21:19:59.181Z,12.37
2019-05-12T21:25:04.006Z,7.97
2019-05-12T21:30:11.735Z,12.80
2019-05-12T21:35:22.013Z,10.97
2019-05-12T21:40:29.831Z,13.67
2019-05-12T21:45:30.822Z,15.93
2019-05-12T21:50:38.227Z,11.63
2019-05-12T21:55:40.438Z,12.87
2019-05-12T22:00:50.532Z,15.80
2019-05-12T22:05:56.422Z,12.10
2019-05-12T22:11:09.502Z,13.87
2019-05-12T22:16:07.564Z,13.37
2019-05-12T22:21:13.640Z,9.80
2019-05-12T22:26:18.447Z,12.93
2019-05-12T22:31:24.253Z,15.77
2019-05-12T22:36:30.230Z,12.73
2019-05-12T22:41:36.890Z,12.73
2019-05-12T22:46:40.966Z,13.00
2019-05-12T22:51:46.638Z,9.30
2019-05-12T22:56:55.189Z,13.33
2019-05-12T23:01:57.730Z,25.23
2019-05-12T23:07:04.546Z,13.60
2019-05-12T23:12:09.722Z,11.40
2019-05-12T23:17:15.333Z,11.27
2019-05-12T23:22:19.888Z,14.43
2019-05-12T23:27:29.757Z,19.07
2019-05-12T23:32:30.639Z,14.13
2019-05-12T23:37:38.384Z,15.23
2019-05-12T23:42:41.335Z,15.47
2019-05-12T23:47:45.831Z,16.30
2019-05-12T23:52:50.269Z,13.43
2019-05-12T23:57:54.722Z,13.23
